Time;durP1;ratioP1;P1;durP2;ratioP2;P2;SDS_P1;SDS_P2;PMS_P1;PMS_P2;Temp;Humidity;BMP_temperature;BMP_pressure;BME280_temperature;BME280_humidity;BME280_pressure;Samples;Min_cycle;Max_cycle;Signal;HPM_P1;HPM_P2
2021/12/14 00:01:18;;;;;;;6.50;3.08;;;;;;;6.86;91.26;102474.59;5046076;28;20112;-69
2021/12/14 00:03:47;;;;;;;5.43;3.15;;;;;;;6.86;91.05;102480.56;5024547;28;20041;-69
2021/12/14 00:06:16;;;;;;;6.32;2.75;;;;;;;6.87;91.12;102479.63;5041091;28;20025;-69
2021/12/14 00:08:54;;;;;;;13.90;3.58;;;;;;;6.92;90.94;102476.81;5044331;28;20036;-70
2021/12/14 00:11:31;;;;;;;6.88;3.58;;;;;;;6.91;90.55;102481.13;5048393;28;20056;-69
2021/12/14 00:14:27;;;;;;;6.13;3.42;;;;;;;6.90;90.72;102488.97;5051317;28;20037;-68
2021/12/14 00:16:58;;;;;;;7.32;3.53;;;;;;;6.89;90.84;102479.56;5035908;28;20025;-70
2021/12/14 00:19:27;;;;;;;8.57;3.42;;;;;;;6.90;91.06;102478.63;5039916;28;20025;-69
2021/12/14 00:22:02;;;;;;;7.07;3.65;;;;;;;6.88;90.76;102486.47;5047309;28;20049;-69
2021/12/14 00:24:28;;;;;;;7.50;4.20;;;;;;;6.91;90.86;102475.97;5041686;28;20037;-69
2021/12/14 00:26:59;;;;;;;9.82;4.80;;;;;;;6.95;91.02;102471.44;5048071;28;20383;-69
2021/12/14 00:29:29;;;;;;;7.28;4.35;;;;;;;6.94;91.24;102469.78;5045660;28;20497;-70
2021/12/14 00:31:58;;;;;;;9.30;4.35;;;;;;;7.04;91.10;102472.66;5049517;28;20268;-68
2021/12/14 00:34:35;;;;;;;7.90;5.15;;;;;;;7.00;90.90;102472.81;5034807;28;20089;-69
2021/12/14 00:37:04;;;;;;;5.78;4.25;;;;;;;6.95;91.15;102463.69;5046482;28;20041;-69
2021/12/14 00:39:30;;;;;;;7.45;4.60;;;;;;;6.95;91.15;102466.28;5049133;28;20047;-68
2021/12/14 00:41:56;;;;;;;6.43;4.57;;;;;;;6.93;91.48;102470.69;5030055;28;20041;-69
2021/12/14 00:44:21;;;;;;;7.97;4.30;;;;;;;6.89;91.61;102467.47;5047954;28;20029;-68
2021/12/14 00:46:48;;;;;;;8.38;5.03;;;;;;;6.90;91.67;102468.31;5047247;28;20087;-69
2021/12/14 00:49:15;;;;;;;9.15;4.55;;;;;;;6.88;91.59;102473.56;5047325;28;20025;-69
2021/12/14 00:51:41;;;;;;;8.02;4.53;;;;;;;6.88;92.00;102476.16;5047736;28;20063;-68
2021/12/14 00:54:12;;;;;;;8.15;4.43;;;;;;;6.87;92.17;102471.06;5048184;28;20025;-70
2021/12/14 00:56:39;;;;;;;7.47;4.93;;;;;;;6.87;92.14;102461.59;5040334;28;20436;-69
2021/12/14 00:59:07;;;;;;;9.60;5.35;;;;;;;6.93;91.93;102452.66;5045976;28;20178;-69
2021/12/14 01:01:38;;;;;;;10.68;5.63;;;;;;;6.94;91.65;102442.25;5048097;28;20029;-69
2021/12/14 01:04:07;;;;;;;10.75;6.88;;;;;;;7.05;90.70;102441.59;5044883;28;20094;-69
2021/12/14 01:06:36;;;;;;;7.80;4.97;;;;;;;7.12;90.47;102436.88;5029214;28;20380;-69
2021/12/14 01:09:06;;;;;;;8.57;5.50;;;;;;;6.99;91.09;102440.22;5044738;28;20090;-69
2021/12/14 01:11:41;;;;;;;10.90;5.82;;;;;;;6.97;91.22;102439.50;5039843;28;20075;-68
2021/12/14 01:14:19;;;;;;;11.77;6.43;;;;;;;7.00;91.47;102447.03;5041384;28;20069;-70
2021/12/14 01:17:09;;;;;;;10.30;5.93;;;;;;;6.97;91.45;102444.66;5043129;28;20299;-68
2021/12/14 01:19:37;;;;;;;12.82;6.50;;;;;;;6.88;91.78;102462.44;5046298;28;20029;-69
2021/12/14 01:22:30;;;;;;;10.52;6.20;;;;;;;6.88;92.03;102468.41;5044282;28;20032;-69
2021/12/14 01:25:03;;;;;;;10.23;6.32;;;;;;;7.02;91.81;102463.25;5047375;28;20029;-70
2021/12/14 01:27:44;;;;;;;9.27;6.03;;;;;;;6.95;91.66;102451.66;5054201;28;20032;-68
2021/12/14 01:30:21;;;;;;;10.25;5.93;;;;;;;6.88;92.59;102457.28;5051980;28;20028;-69
2021/12/14 01:32:49;;;;;;;9.38;6.15;;;;;;;6.80;92.74;102452.56;5048552;28;20550;-69
2021/12/14 01:35:19;;;;;;;13.60;6.97;;;;;;;6.77;93.10;102463.88;5049525;28;20078;-69
2021/12/14 01:38:00;;;;;;;16.08;7.60;;;;;;;6.79;92.97;102480.09;5048686;28;20031;-69
2021/12/14 01:43:34;;;;;;;11.10;6.40;;;;;;;6.74;93.33;102487.28;5047405;28;20064;-68
2021/12/14 01:46:15;;;;;;;13.68;6.63;;;;;;;6.75;93.29;102475.22;5048403;28;20040;-68
2021/12/14 01:48:42;;;;;;;14.77;7.53;;;;;;;6.73;93.78;102482.22;5049050;28;20059;-69
2021/12/14 01:51:31;;;;;;;13.45;7.03;;;;;;;6.74;94.21;102478.69;5048183;28;20045;-69
2021/12/14 01:54:02;;;;;;;14.68;7.35;;;;;;;6.80;93.98;102474.03;5058045;28;20112;-70
2021/12/14 01:56:30;;;;;;;16.33;7.55;;;;;;;6.76;94.04;102461.38;5047712;28;20104;-69
2021/12/14 01:59:05;;;;;;;18.00;8.30;;;;;;;6.80;93.31;102466.28;5047608;28;20040;-69
2021/12/14 02:01:42;;;;;;;13.50;7.80;;;;;;;6.74;93.71;102463.22;5043387;28;20025;-69
2021/12/14 02:04:15;;;;;;;15.35;7.03;;;;;;;6.82;93.41;102492.00;5044686;28;20044;-69
2021/12/14 02:06:42;;;;;;;16.30;8.35;;;;;;;6.85;92.82;102480.66;5042234;28;20040;-69
2021/12/14 02:09:12;;;;;;;14.90;8.80;;;;;;;6.73;93.36;102487.38;5048185;28;20452;-69
2021/12/14 02:11:44;;;;;;;14.82;8.20;;;;;;;6.76;93.29;102479.44;5048480;28;20025;-69
2021/12/14 02:14:10;;;;;;;17.15;8.32;;;;;;;6.75;92.95;102476.03;5047254;28;20040;-68
2021/12/14 02:16:37;;;;;;;16.50;8.02;;;;;;;6.79;93.34;102469.78;5049249;28;20033;-69
2021/12/14 02:19:11;;;;;;;16.98;8.88;;;;;;;6.81;92.48;102455.03;5047670;28;20028;-69
2021/12/14 02:21:38;;;;;;;19.45;9.02;;;;;;;6.94;92.17;102436.28;5046257;28;20052;-68
2021/12/14 02:24:07;;;;;;;15.05;8.35;;;;;;;7.05;91.49;102427.91;5049624;28;20025;-68
2021/12/14 02:26:36;;;;;;;18.52;8.70;;;;;;;6.95;91.55;102430.16;5051408;28;20120;-69
2021/12/14 02:29:05;;;;;;;18.15;8.90;;;;;;;6.82;92.04;102410.28;5051291;28;20029;-68
2021/12/14 02:31:35;;;;;;;19.08;8.60;;;;;;;6.71;92.47;102428.16;5033137;28;20021;-69
2021/12/14 02:34:02;;;;;;;21.45;8.50;;;;;;;6.73;93.12;102426.31;5048502;28;20043;-69
2021/12/14 02:36:37;;;;;;;15.05;7.85;;;;;;;6.69;93.29;102434.34;5048512;28;20024;-69
2021/12/14 02:39:11;;;;;;;17.65;9.02;;;;;;;6.75;93.48;102432.19;5055172;28;20040;-69
2021/12/14 02:41:54;;;;;;;19.38;8.77;;;;;;;6.76;93.22;102428.72;5050783;28;20029;-69
2021/12/14 02:44:22;;;;;;;20.88;10.02;;;;;;;6.75;93.19;102418.50;5065237;23;20031;-74
2021/12/14 02:46:58;;;;;;;20.30;9.43;;;;;;;6.70;93.45;102415.34;5067265;28;20041;-70
2021/12/14 02:49:30;;;;;;;21.52;9.50;;;;;;;6.65;93.85;102407.91;5063394;28;20021;-72
2021/12/14 02:52:00;;;;;;;19.83;9.10;;;;;;;6.67;93.71;102413.78;5071263;28;20403;-72
2021/12/14 02:54:31;;;;;;;21.50;9.73;;;;;;;6.69;93.77;102409.38;5059064;28;20033;-72
2021/12/14 02:57:02;;;;;;;18.65;9.32;;;;;;;6.81;93.35;102421.50;5034556;28;20554;-72
2021/12/14 02:59:30;;;;;;;18.02;9.20;;;;;;;6.72;93.56;102423.81;5045958;28;20059;-72
2021/12/14 03:02:03;;;;;;;23.40;10.05;;;;;;;6.62;93.84;102419.22;5050443;28;20036;-73
2021/12/14 03:04:30;;;;;;;21.08;9.52;;;;;;;6.60;94.38;102413.31;5022942;28;20623;-72
2021/12/14 03:06:59;;;;;;;20.42;9.68;;;;;;;6.57;94.43;102397.19;5052285;28;20039;-72
2021/12/14 03:12:32;;;;;;;;;;;;;;;6.66;93.98;102388.91;5047030;28;20058;-72
2021/12/14 03:15:01;;;;;;;22.27;9.57;;;;;;;6.64;94.07;102388.19;5050544;28;19986;-73
2021/12/14 03:17:27;;;;;;;21.15;9.55;;;;;;;6.66;94.38;102391.50;5052160;28;20063;-72
2021/12/14 03:20:09;;;;;;;23.73;10.30;;;;;;;6.76;93.91;102396.94;5033595;28;20036;-72
2021/12/14 03:22:42;;;;;;;19.60;9.57;;;;;;;6.70;94.11;102387.81;5043620;28;20483;-72
2021/12/14 03:25:09;;;;;;;22.95;10.48;;;;;;;6.60;94.57;102394.44;5050073;28;20068;-74
2021/12/14 03:27:40;;;;;;;23.92;10.80;;;;;;;6.74;94.60;102391.88;5050181;28;20483;-73
2021/12/14 03:30:18;;;;;;;30.35;11.18;;;;;;;6.59;94.41;102385.03;5040320;28;20095;-70
2021/12/14 03:32:45;;;;;;;23.92;11.35;;;;;;;6.53;95.06;102393.97;5044165;28;20033;-70
2021/12/14 03:35:10;;;;;;;23.70;10.55;;;;;;;6.48;95.51;102390.84;5049539;28;20036;-70
2021/12/14 03:37:39;;;;;;;23.30;10.65;;;;;;;6.52;95.79;102397.47;5049588;28;20058;-70
2021/12/14 03:40:07;;;;;;;25.77;11.55;;;;;;;6.60;95.81;102405.59;5049317;28;20034;-70
2021/12/14 03:42:39;;;;;;;22.67;10.57;;;;;;;6.71;95.09;102397.22;5049553;28;20076;-70
2021/12/14 03:45:16;;;;;;;23.38;11.68;;;;;;;6.58;95.43;102407.44;5046133;28;20029;-70
2021/12/14 03:47:47;;;;;;;26.05;12.02;;;;;;;6.51;95.96;102411.28;5047142;28;20029;-72
2021/12/14 03:50:22;;;;;;;25.35;11.60;;;;;;;6.58;96.45;102419.50;5048895;28;20544;-70
2021/12/14 03:52:48;;;;;;;24.50;11.75;;;;;;;6.54;96.85;102420.59;5049812;28;20040;-70
2021/12/14 03:55:22;;;;;;;27.58;11.68;;;;;;;6.54;96.61;102413.69;5042722;28;20157;-70
2021/12/14 03:57:50;;;;;;;21.83;11.38;;;;;;;6.48;96.93;102411.47;5048535;28;20522;-72
2021/12/14 04:00:24;;;;;;;24.17;10.82;;;;;;;6.42;97.28;102404.94;5032660;28;20132;-72
2021/12/14 04:02:53;;;;;;;28.65;12.35;;;;;;;6.49;97.52;102400.22;5048747;28;20760;-72
2021/12/14 04:05:29;;;;;;;25.92;12.20;;;;;;;6.53;97.62;102400.88;5042749;28;20640;-73
2021/12/14 04:07:56;;;;;;;23.17;10.77;;;;;;;6.47;97.88;102408.97;5047357;28;20055;-72
2021/12/14 04:10:30;;;;;;;26.92;12.32;;;;;;;6.42;98.20;102412.66;5049072;28;20470;-72
2021/12/14 04:12:57;;;;;;;34.92;12.23;;;;;;;6.42;98.34;102401.50;5025781;28;20495;-70
2021/12/14 04:15:24;;;;;;;43.35;20.58;;;;;;;6.48;98.40;102405.47;5042545;28;20057;-71
2021/12/14 04:17:51;;;;;;;71.05;24.67;;;;;;;6.42;98.64;102409.22;5047571;28;20039;-72
2021/12/14 04:20:21;;;;;;;148.52;43.40;;;;;;;6.36;98.96;102400.13;5048646;28;20936;-72
2021/12/14 04:22:48;;;;;;;51.15;17.70;;;;;;;6.39;99.32;102392.22;5049037;28;20029;-72
2021/12/14 04:25:21;;;;;;;117.57;41.60;;;;;;;6.36;99.50;102404.44;5048003;28;20099;-70
2021/12/14 04:27:50;;;;;;;172.30;53.22;;;;;;;6.34;99.47;102404.53;5048968;28;20033;-71
2021/12/14 04:30:19;;;;;;;153.68;47.22;;;;;;;6.41;99.85;102420.47;5047449;28;20037;-73
2021/12/14 04:32:47;;;;;;;203.35;63.13;;;;;;;6.38;99.99;102431.78;5046466;28;20079;-72
2021/12/14 04:35:14;;;;;;;239.27;70.13;;;;;;;6.36;99.48;102423.31;5045929;28;20029;-73
2021/12/14 04:37:42;;;;;;;297.70;86.22;;;;;;;6.38;100.00;102429.19;5050436;28;20032;-72
2021/12/14 04:51:51;;;;;;;190.52;54.13;;;;;;;6.36;100.00;102433.59;5048787;28;20033;-73
2021/12/14 04:52:00;;;;;;;68.65;32.65;;;;;;;6.32;100.00;102424.41;5044346;28;20025;-70
2021/12/14 04:54:36;;;;;;;113.82;50.25;;;;;;;6.31;100.00;102422.75;5048796;28;20029;-70
2021/12/14 04:57:02;;;;;;;77.93;35.33;;;;;;;6.34;100.00;102424.31;5049507;28;20565;-72
2021/12/14 04:59:32;;;;;;;45.33;22.10;;;;;;;6.35;100.00;102420.84;5050200;28;20053;-73
2021/12/14 05:02:14;;;;;;;40.75;18.98;;;;;;;6.35;100.00;102428.56;5049817;28;20033;-71
2021/12/14 05:04:59;;;;;;;65.03;29.67;;;;;;;6.36;100.00;102419.91;5043677;28;20056;-72
2021/12/14 05:09:54;;;;;;;36.80;19.00;;;;;;;6.36;100.00;102420.72;5048698;28;20032;-73
2021/12/14 05:12:25;;;;;;;38.72;18.00;;;;;;;6.35;100.00;102421.66;5048338;28;20029;-73
2021/12/14 05:15:09;;;;;;;24.85;12.57;;;;;;;6.32;100.00;102419.25;5045689;28;20029;-72
2021/12/14 05:17:42;;;;;;;20.83;10.82;;;;;;;6.34;100.00;102419.16;5043731;28;20079;-73
2021/12/14 05:20:11;;;;;;;23.80;11.57;;;;;;;6.38;100.00;102413.72;5048738;28;20033;-72
2021/12/14 05:22:43;;;;;;;22.30;11.35;;;;;;;6.36;100.00;102425.06;5049337;28;20029;-72
2021/12/14 05:25:21;;;;;;;28.33;15.03;;;;;;;6.34;100.00;102420.00;5049023;28;20029;-72
2021/12/14 05:27:52;;;;;;;28.15;14.20;;;;;;;6.31;100.00;102416.75;5048411;28;20403;-70
2021/12/14 05:30:41;;;;;;;23.05;10.88;;;;;;;6.30;100.00;102422.84;5048847;28;20060;-71
2021/12/14 05:33:21;;;;;;;19.52;10.23;;;;;;;6.36;100.00;102417.34;5047990;28;20124;-72
2021/12/14 05:35:51;;;;;;;22.50;11.07;;;;;;;6.34;100.00;102411.44;5065835;28;20033;-70
2021/12/14 05:38:28;;;;;;;19.42;9.50;;;;;;;6.34;100.00;102407.09;5045861;28;20600;-71
2021/12/14 05:43:26;;;;;;;18.80;9.88;;;;;;;6.34;100.00;102401.13;5044291;28;20474;-73
2021/12/14 05:46:19;;;;;;;24.45;11.02;;;;;;;6.28;100.00;102398.91;5046984;28;20057;-73
2021/12/14 05:49:02;;;;;;;23.45;10.38;;;;;;;6.30;100.00;102403.06;5013523;28;20021;-72
2021/12/14 05:51:30;;;;;;;28.45;12.90;;;;;;;6.33;100.00;102404.63;5048331;28;20033;-72
2021/12/14 05:53:58;;;;;;;27.48;13.00;;;;;;;6.28;100.00;102402.31;5047973;28;20021;-73
2021/12/14 05:56:25;;;;;;;22.30;11.82;;;;;;;6.26;100.00;102391.28;5047583;28;20028;-73
2021/12/14 05:58:54;;;;;;;20.95;10.77;;;;;;;6.24;100.00;102399.09;5051393;28;20442;-70
2021/12/14 06:01:26;;;;;;;21.42;10.48;;;;;;;6.26;100.00;102401.59;5046668;28;20111;-72
2021/12/14 06:03:59;;;;;;;20.58;11.13;;;;;;;6.29;100.00;102404.00;5052791;28;20087;-72
2021/12/14 06:06:57;;;;;;;26.38;11.30;;;;;;;6.28;100.00;102406.66;5051437;28;20036;-73
2021/12/14 06:09:30;;;;;;;21.70;11.75;;;;;;;6.28;100.00;102407.47;5047598;28;20660;-72
2021/12/14 06:12:11;;;;;;;28.83;14.45;;;;;;;6.29;100.00;102414.28;5047619;28;20037;-73
2021/12/14 06:14:43;;;;;;;26.33;12.98;;;;;;;6.41;99.96;102407.59;5051707;28;20112;-72
2021/12/14 06:17:11;;;;;;;26.13;13.47;;;;;;;6.30;100.00;102408.22;5031453;28;20025;-72
2021/12/14 06:19:48;;;;;;;25.75;13.32;;;;;;;6.32;100.00;102406.38;5052647;28;20029;-72
2021/12/14 06:22:17;;;;;;;21.17;10.88;;;;;;;6.32;100.00;102406.38;5034974;28;20035;-72
2021/12/14 06:24:48;;;;;;;20.77;10.38;;;;;;;6.28;100.00;102412.63;5051389;28;20072;-72
2021/12/14 06:27:18;;;;;;;20.20;9.85;;;;;;;6.31;99.71;102409.03;5033563;28;20037;-72
2021/12/14 06:29:53;;;;;;;19.88;9.25;;;;;;;6.24;100.00;102414.53;5051572;28;20021;-73
2021/12/14 06:32:24;;;;;;;17.67;9.38;;;;;;;6.29;100.00;102414.28;5051810;28;20063;-72
2021/12/14 06:35:07;;;;;;;19.55;9.32;;;;;;;6.40;99.82;102413.66;5050608;28;20025;-73
2021/12/14 06:40:22;;;;;;;17.33;8.55;;;;;;;6.25;100.00;102417.94;5052538;28;19917;-70
2021/12/14 06:42:56;;;;;;;17.42;9.02;;;;;;;6.34;99.86;102424.31;5045753;28;20033;-70
2021/12/14 06:45:45;;;;;;;21.42;10.48;;;;;;;6.29;99.66;102424.59;5041372;28;20438;-71
2021/12/14 06:48:20;;;;;;;21.60;9.93;;;;;;;6.36;99.75;102427.63;5051631;28;20090;-70
2021/12/14 06:50:55;;;;;;;22.15;10.35;;;;;;;6.39;99.22;102428.28;5048710;28;20025;-70
2021/12/14 06:53:31;;;;;;;21.90;10.50;;;;;;;6.30;99.55;102444.28;5034640;28;20570;-70
2021/12/14 06:56:26;;;;;;;22.30;10.70;;;;;;;6.42;99.42;102441.00;5050004;28;20033;-71
2021/12/14 06:59:14;;;;;;;20.02;9.55;;;;;;;6.42;99.22;102458.19;5050451;28;20062;-71
2021/12/14 07:02:15;;;;;;;20.55;10.05;;;;;;;6.48;98.70;102452.72;4993615;28;20054;-70
2021/12/14 07:05:26;;;;;;;22.98;10.82;;;;;;;6.38;98.80;102461.88;5046290;28;20037;-70
2021/12/14 07:07:59;;;;;;;22.08;10.35;;;;;;;6.29;98.74;102462.41;5048587;28;20064;-70
2021/12/14 07:10:34;;;;;;;23.77;11.23;;;;;;;6.32;98.87;102464.81;5046642;28;20028;-73
2021/12/14 07:12:59;;;;;;;;;;;;;;;6.31;98.88;102464.00;5050941;28;20029;-72
2021/12/14 07:15:27;;;;;;;22.50;10.23;;;;;;;6.36;98.61;102459.38;5051319;28;19920;-72
2021/12/14 07:18:03;;;;;;;22.85;11.38;;;;;;;6.32;98.64;102459.66;5055364;28;20040;-73
2021/12/14 07:20:40;;;;;;;21.98;11.23;;;;;;;6.24;99.28;102454.94;5034223;28;20029;-73
2021/12/14 07:23:17;;;;;;;23.90;10.98;;;;;;;6.23;99.30;102443.81;5051173;28;20049;-72
2021/12/14 07:25:48;;;;;;;24.02;11.32;;;;;;;6.33;99.12;102453.56;5044857;28;20040;-73
2021/12/14 07:28:16;;;;;;;23.00;10.88;;;;;;;6.26;99.10;102460.00;5049377;28;20037;-72
2021/12/14 07:30:48;;;;;;;23.50;11.90;;;;;;;6.24;98.84;102480.69;5050468;28;20402;-72
2021/12/14 07:33:16;;;;;;;20.52;11.50;;;;;;;6.20;99.20;102480.03;5050097;28;20123;-70
2021/12/14 07:35:53;;;;;;;20.42;9.88;;;;;;;6.17;99.30;102487.94;5044048;28;20035;-72
2021/12/14 07:38:45;;;;;;;21.83;10.90;;;;;;;6.14;100.00;102498.44;5050891;28;20084;-73
2021/12/14 07:41:25;;;;;;;25.77;12.30;;;;;;;6.18;99.84;102512.78;5049004;28;20036;-73
2021/12/14 07:43:54;;;;;;;25.00;11.60;;;;;;;6.22;99.96;102509.13;5050212;28;20505;-73
2021/12/14 07:46:32;;;;;;;21.70;10.98;;;;;;;6.23;99.84;102512.53;5045952;28;20037;-73
2021/12/14 07:49:05;;;;;;;24.30;12.50;;;;;;;6.27;99.94;102518.34;5051342;28;20151;-71
2021/12/14 07:51:37;;;;;;;24.27;11.50;;;;;;;6.22;99.73;102516.84;5049634;28;20028;-71
2021/12/14 07:54:13;;;;;;;28.02;12.63;;;;;;;6.29;99.67;102524.22;5050544;28;20037;-70
2021/12/14 07:56:51;;;;;;;28.83;13.13;;;;;;;6.25;99.40;102528.72;5048856;28;20068;-70
2021/12/14 07:59:24;;;;;;;27.65;12.45;;;;;;;6.26;99.73;102532.97;5050840;28;20029;-73
2021/12/14 08:02:16;;;;;;;24.58;13.10;;;;;;;6.22;99.48;102532.31;5046517;28;20123;-72
2021/12/14 08:04:58;;;;;;;29.80;13.55;;;;;;;6.31;99.24;102541.28;5045100;28;20029;-73
2021/12/14 08:07:25;;;;;;;27.77;13.55;;;;;;;6.36;98.77;102535.84;5041641;28;20136;-73
2021/12/14 08:09:54;;;;;;;26.10;12.45;;;;;;;6.30;98.50;102529.31;5049664;28;20025;-73
2021/12/14 08:12:36;;;;;;;26.27;12.90;;;;;;;6.35;99.38;102521.34;5047211;28;20094;-73
2021/12/14 08:15:14;;;;;;;24.58;12.68;;;;;;;6.35;99.27;102529.88;5050306;28;20036;-73
2021/12/14 08:17:40;;;;;;;27.23;13.35;;;;;;;6.34;99.03;102523.06;5047055;28;20494;-73
2021/12/14 08:20:09;;;;;;;29.23;13.38;;;;;;;6.27;99.05;102526.88;5048578;28;20037;-73
2021/12/14 08:22:38;;;;;;;29.75;13.77;;;;;;;6.31;99.41;102537.84;5050412;28;20117;-73
2021/12/14 08:25:06;;;;;;;27.15;13.65;;;;;;;6.28;99.20;102544.03;5049710;28;20039;-74
2021/12/14 08:27:32;;;;;;;28.25;13.98;;;;;;;6.24;99.08;102548.50;5049697;28;20036;-72
2021/12/14 08:30:02;;;;;;;28.48;13.60;;;;;;;6.48;98.68;102555.81;5050533;28;20423;-73
2021/12/14 08:32:35;;;;;;;27.70;13.27;;;;;;;6.46;98.07;102556.78;5042737;28;20037;-72
2021/12/14 08:35:05;;;;;;;24.92;13.68;;;;;;;6.43;97.84;102556.03;5046932;28;20036;-73
2021/12/14 08:37:43;;;;;;;27.48;12.70;;;;;;;6.41;98.11;102557.88;5048258;28;20032;-72
2021/12/14 08:40:10;;;;;;;26.63;13.05;;;;;;;6.37;98.39;102558.16;5048596;28;20112;-73
2021/12/14 08:42:45;;;;;;;25.77;13.18;;;;;;;6.32;98.53;102555.81;5049898;28;20115;-73
2021/12/14 08:45:26;;;;;;;29.00;13.10;;;;;;;6.33;98.73;102552.31;5063432;23;20524;-69
2021/12/14 08:48:32;;;;;;;24.85;12.93;;;;;;;6.38;98.17;102547.72;5045512;28;20044;-69
2021/12/14 08:51:13;;;;;;;30.13;15.05;;;;;;;6.53;98.13;102545.22;5048454;28;20039;-71
2021/12/14 08:53:48;;;;;;;26.65;13.68;;;;;;;6.41;97.79;102539.84;5060880;28;20044;-69
2021/12/14 08:56:17;;;;;;;29.25;13.95;;;;;;;6.35;98.45;102540.19;5049764;28;20492;-70
2021/12/14 08:58:43;;;;;;;30.92;13.63;;;;;;;6.46;98.25;102542.19;5048287;28;20048;-69
2021/12/14 09:01:15;;;;;;;33.78;13.63;;;;;;;6.41;98.27;102539.84;5050231;28;20574;-69
2021/12/14 09:03:46;;;;;;;28.73;14.90;;;;;;;6.38;98.23;102534.84;5048666;28;20410;-69
2021/12/14 09:06:16;;;;;;;34.08;14.20;;;;;;;6.44;98.18;102533.66;5045916;28;20037;-69
2021/12/14 09:08:43;;;;;;;29.92;14.52;;;;;;;6.46;98.52;102534.44;5046865;28;20029;-69
2021/12/14 09:11:11;;;;;;;29.63;13.93;;;;;;;6.49;97.92;102530.84;5048853;28;20044;-69
2021/12/14 09:13:39;;;;;;;32.92;14.93;;;;;;;6.40;97.52;102538.19;5050240;28;20021;-70
2021/12/14 09:16:11;;;;;;;32.53;13.70;;;;;;;6.37;98.34;102532.38;5047481;28;20060;-69
2021/12/14 09:18:42;;;;;;;27.55;14.45;;;;;;;6.50;98.03;102538.50;5045516;28;20386;-69
2021/12/14 09:21:16;;;;;;;33.40;13.88;;;;;;;6.46;98.13;102544.75;5030954;28;20021;-69
2021/12/14 09:23:47;;;;;;;28.27;13.30;;;;;;;6.44;97.93;102531.09;5044342;28;20565;-71
2021/12/14 09:26:21;;;;;;;26.77;13.07;;;;;;;6.49;98.40;102543.72;5044653;28;20030;-69
2021/12/14 09:28:48;;;;;;;29.17;13.98;;;;;;;6.48;97.77;102550.66;5030574;28;20403;-69
2021/12/14 09:31:20;;;;;;;30.30;14.30;;;;;;;6.49;98.11;102554.03;5057245;28;20402;-69
2021/12/14 09:33:48;;;;;;;29.58;12.90;;;;;;;6.43;98.36;102552.63;5050807;28;20043;-69
2021/12/14 09:36:15;;;;;;;31.67;13.52;;;;;;;6.55;97.64;102553.69;5049960;28;20051;-69
2021/12/14 09:38:47;;;;;;;30.70;14.10;;;;;;;6.61;97.08;102549.03;5051686;28;20596;-69
2021/12/14 09:41:18;;;;;;;29.37;13.10;;;;;;;6.68;97.28;102552.06;5052119;28;20029;-69
2021/12/14 09:43:47;;;;;;;28.33;12.98;;;;;;;6.64;97.33;102548.00;5030018;28;20040;-69
2021/12/14 09:46:15;;;;;;;30.83;13.63;;;;;;;6.62;97.18;102552.44;5051836;28;20090;-69
2021/12/14 09:48:45;;;;;;;28.48;13.80;;;;;;;6.69;97.14;102550.34;5037211;28;20047;-69
2021/12/14 09:51:16;;;;;;;30.80;13.85;;;;;;;6.76;97.07;102549.06;5050478;28;20036;-69
2021/12/14 09:53:46;;;;;;;29.75;12.38;;;;;;;6.65;96.97;102541.09;5051119;28;20059;-69
2021/12/14 09:56:16;;;;;;;26.70;12.77;;;;;;;6.65;97.46;102552.25;5053268;28;20067;-70
2021/12/14 09:58:47;;;;;;;28.98;12.90;;;;;;;6.78;97.04;102548.06;5051979;28;20464;-69
2021/12/14 10:01:25;;;;;;;32.13;13.35;;;;;;;6.72;96.85;102561.28;5054951;28;20025;-69
2021/12/14 10:03:53;;;;;;;30.50;13.27;;;;;;;6.65;97.34;102557.41;5051588;28;20438;-69
2021/12/14 10:06:24;;;;;;;28.55;14.05;;;;;;;6.80;97.46;102560.88;5052026;28;20582;-70
2021/12/14 10:08:57;;;;;;;26.30;13.05;;;;;;;6.73;97.21;102555.22;5053247;28;20033;-69
2021/12/14 10:12:17;;;;;;;27.98;13.00;;;;;;;6.85;96.47;102558.84;5031128;28;20063;-69
2021/12/14 10:14:21;;;;;;;28.60;12.23;;;;;;;6.86;96.61;102559.69;5043772;28;20040;-69
2021/12/14 10:16:47;;;;;;;25.27;12.32;;;;;;;6.76;96.76;102564.53;5051676;28;20037;-69
2021/12/14 10:19:17;;;;;;;31.10;13.43;;;;;;;6.91;96.56;102561.09;5034414;28;20112;-69
2021/12/14 10:21:49;;;;;;;28.05;13.68;;;;;;;7.00;96.15;102554.53;5051089;28;20468;-69
2021/12/14 10:24:16;;;;;;;29.98;13.07;;;;;;;6.93;96.11;102561.81;5051536;28;20503;-69
2021/12/14 10:26:48;;;;;;;28.17;12.95;;;;;;;6.92;96.39;102560.16;5050884;28;20033;-69
2021/12/14 10:29:14;;;;;;;29.25;12.95;;;;;;;6.95;96.80;102556.56;5049448;28;20445;-69
2021/12/14 10:31:47;;;;;;;28.00;13.60;;;;;;;6.97;96.36;102554.75;5052131;28;20123;-69
2021/12/14 10:34:23;;;;;;;28.65;13.60;;;;;;;7.06;95.77;102558.50;5051028;28;20033;-69
2021/12/14 10:37:07;;;;;;;28.10;13.82;;;;;;;7.04;95.52;102561.19;5052733;28;20025;-69
2021/12/14 10:44:53;;;;;;;29.75;14.15;;;;;;;7.04;96.17;102566.34;5054517;28;20033;-69
2021/12/14 10:47:21;;;;;;;30.20;14.93;;;;;;;7.28;94.98;102558.91;5033071;28;20048;-69
2021/12/14 10:49:50;;;;;;;32.08;15.20;;;;;;;7.19;94.50;102562.84;5048945;28;20562;-69
2021/12/14 10:52:21;;;;;;;30.20;13.80;;;;;;;7.17;94.73;102556.13;5052118;28;20719;-69
2021/12/14 10:54:54;;;;;;;34.03;14.25;;;;;;;7.28;94.90;102552.91;5046768;28;20036;-69
2021/12/14 10:57:23;;;;;;;27.73;13.30;;;;;;;7.18;94.80;102558.63;5051121;28;20542;-69
2021/12/14 10:59:52;;;;;;;27.88;12.98;;;;;;;7.10;95.28;102557.41;5030074;28;20048;-69
2021/12/14 11:02:21;;;;;;;32.30;15.52;;;;;;;7.17;95.48;102544.06;5048829;28;20102;-69
2021/12/14 11:04:54;;;;;;;30.33;15.80;;;;;;;7.17;95.12;102543.22;5051037;28;20029;-69
2021/12/14 11:07:35;;;;;;;29.33;14.25;;;;;;;7.12;95.27;102542.66;5050280;28;20056;-69
2021/12/14 11:10:11;;;;;;;31.67;15.85;;;;;;;7.16;95.14;102539.81;5048254;28;20128;-70
2021/12/14 11:12:40;;;;;;;29.92;15.05;;;;;;;7.23;94.76;102537.69;5050070;28;20025;-69
2021/12/14 11:15:13;;;;;;;32.53;15.48;;;;;;;7.21;95.06;102536.97;5051151;28;20600;-69
2021/12/14 11:20:35;;;;;;;34.70;15.00;;;;;;;7.24;95.48;102533.38;5044234;28;20029;-69
2021/12/14 11:23:02;;;;;;;33.25;15.43;;;;;;;7.44;94.51;102529.59;5049123;28;20128;-69
2021/12/14 11:25:31;;;;;;;32.20;15.60;;;;;;;7.50;94.12;102527.47;5049785;28;20072;-69
2021/12/14 11:28:08;;;;;;;28.05;15.18;;;;;;;7.36;94.55;102530.88;5049735;28;20064;-69
2021/12/14 11:30:36;;;;;;;33.20;15.57;;;;;;;7.37;94.15;102535.13;5046430;28;20392;-69
2021/12/14 11:33:25;;;;;;;29.23;14.63;;;;;;;7.46;93.97;102527.75;5049078;28;20032;-69
2021/12/14 11:36:10;;;;;;;32.03;15.32;;;;;;;7.50;93.87;102529.22;5040535;28;20037;-69
2021/12/14 11:38:38;;;;;;;33.00;14.82;;;;;;;7.39;93.85;102525.53;5053906;28;20053;-68
2021/12/14 11:41:26;;;;;;;33.83;15.30;;;;;;;7.38;94.87;102530.78;5046187;28;20063;-69
2021/12/14 11:44:00;;;;;;;30.15;16.20;;;;;;;7.37;94.46;102526.56;5046701;28;20071;-69
2021/12/14 11:46:28;;;;;;;34.10;15.80;;;;;;;7.50;94.37;102522.31;5059161;28;20033;-69
2021/12/14 11:48:57;;;;;;;33.92;15.27;;;;;;;7.53;93.67;102514.34;5044639;28;20033;-69
2021/12/14 11:51:24;;;;;;;32.60;15.45;;;;;;;7.42;94.42;102516.75;5048175;28;20398;-69
2021/12/14 11:53:53;;;;;;;30.85;15.52;;;;;;;7.59;93.24;102520.91;5052109;28;20032;-70
2021/12/14 11:56:22;;;;;;;34.13;16.60;;;;;;;7.58;93.15;102519.25;5055383;28;20091;-68
2021/12/14 11:58:56;;;;;;;35.38;17.27;;;;;;;7.60;92.88;102522.56;5031705;28;20445;-69
2021/12/14 12:01:26;;;;;;;34.17;16.00;;;;;;;7.67;93.08;102518.69;5045659;28;20094;-69
2021/12/14 12:03:56;;;;;;;33.20;15.63;;;;;;;7.73;92.74;102514.91;5044159;28;20036;-70
2021/12/14 12:11:59;;;;;;;32.53;15.52;;;;;;;7.74;92.34;102507.06;5049608;28;20055;-69
2021/12/14 12:14:49;;;;;;;34.33;16.73;;;;;;;7.90;91.90;102512.09;5046387;28;20029;-69
2021/12/14 12:17:36;;;;;;;33.63;16.63;;;;;;;7.85;91.97;102508.94;5046442;28;20434;-69
2021/12/14 12:20:23;;;;;;;39.50;16.38;;;;;;;7.84;91.51;102504.72;5048825;28;20033;-70
2021/12/14 12:22:48;;;;;;;33.17;16.77;;;;;;;7.86;91.31;102499.47;5045936;28;20379;-69